createdAt,value
2022-07-26T00:00:41.703Z,19.70
2022-07-26T00:03:43.503Z,19.60
2022-07-26T00:06:45.248Z,19.60
2022-07-26T00:09:48.509Z,19.60
2022-07-26T00:12:50.327Z,19.50
2022-07-26T00:15:52.676Z,19.50
2022-07-26T00:18:54.593Z,19.50
2022-07-26T00:22:14.877Z,19.40
2022-07-26T00:25:16.605Z,19.40
2022-07-26T00:28:18.323Z,19.30
2022-07-26T00:31:20.191Z,19.10
2022-07-26T00:34:21.940Z,19.10
2022-07-26T00:37:24.878Z,19.00
2022-07-26T00:40:27.072Z,19.00
2022-07-26T00:43:28.839Z,19.00
2022-07-26T00:46:30.637Z,18.90
2022-07-26T00:49:32.849Z,18.90
2022-07-26T00:52:34.728Z,18.80
2022-07-26T00:55:36.537Z,18.80
2022-07-26T00:58:38.232Z,18.80
2022-07-26T01:01:40.118Z,18.90
2022-07-26T01:04:44.701Z,18.80
2022-07-26T01:07:48.431Z,18.70
2022-07-26T01:10:50.575Z,18.50
2022-07-26T01:13:52.477Z,18.60
2022-07-26T01:16:54.457Z,18.60
2022-07-26T01:19:56.223Z,18.60
2022-07-26T01:22:57.911Z,18.60
2022-07-26T01:25:59.630Z,18.50
2022-07-26T01:29:02.116Z,18.60
2022-07-26T01:32:04.951Z,18.60
2022-07-26T01:35:07.421Z,18.60
2022-07-26T01:38:09.443Z,18.60
2022-07-26T01:41:11.631Z,18.60
2022-07-26T01:44:13.474Z,18.70
2022-07-26T01:47:15.406Z,18.60
2022-07-26T01:50:17.949Z,18.60
2022-07-26T01:53:19.684Z,18.60
2022-07-26T01:56:21.420Z,18.60
2022-07-26T01:59:23.153Z,18.60
2022-07-26T02:02:25.081Z,18.60
2022-07-26T02:05:27.013Z,18.60
2022-07-26T02:08:28.704Z,18.60
2022-07-26T02:11:30.447Z,18.50
2022-07-26T02:14:32.137Z,18.50
2022-07-26T02:17:33.977Z,18.50
2022-07-26T02:20:35.750Z,18.60
2022-07-26T02:23:41.656Z,18.60
2022-07-26T02:26:43.861Z,18.50
2022-07-26T02:29:45.736Z,18.50
2022-07-26T02:32:47.635Z,18.60
2022-07-26T02:35:49.721Z,18.50
2022-07-26T02:38:51.447Z,18.50
2022-07-26T02:41:56.766Z,18.50
2022-07-26T02:44:58.470Z,18.50
2022-07-26T02:48:00.665Z,18.40
2022-07-26T02:51:03.452Z,18.40
2022-07-26T02:54:05.573Z,18.40
2022-07-26T02:57:07.742Z,18.40
2022-07-26T03:00:11.528Z,18.40
2022-07-26T03:03:14.360Z,18.40
2022-07-26T03:06:16.321Z,18.40
2022-07-26T03:09:18.016Z,18.40
2022-07-26T03:12:19.730Z,18.40
2022-07-26T03:15:21.519Z,18.40
2022-07-26T03:18:23.217Z,18.40
2022-07-26T03:21:24.928Z,18.40
2022-07-26T03:24:26.615Z,18.40
2022-07-26T03:27:28.321Z,18.40
2022-07-26T03:30:30.079Z,18.40
2022-07-26T03:33:31.864Z,18.40
2022-07-26T03:36:33.576Z,18.40
2022-07-26T03:39:35.314Z,18.40
2022-07-26T03:42:37.143Z,18.40
2022-07-26T03:45:38.862Z,18.30
2022-07-26T03:48:40.662Z,18.30
2022-07-26T03:51:42.386Z,18.20
2022-07-26T03:54:44.097Z,18.20
2022-07-26T03:57:45.787Z,18.20
2022-07-26T04:00:47.548Z,18.20
2022-07-26T04:03:49.285Z,18.20
2022-07-26T04:06:52.131Z,18.10
2022-07-26T04:09:54.659Z,18.10
2022-07-26T04:12:56.443Z,18.10
2022-07-26T04:15:58.138Z,18.10
2022-07-26T04:18:59.863Z,18.10
2022-07-26T04:22:01.549Z,18.00
2022-07-26T04:25:04.539Z,17.80
2022-07-26T04:28:06.253Z,17.80
2022-07-26T04:31:08.407Z,17.60
2022-07-26T04:34:10.685Z,17.50
2022-07-26T04:37:12.772Z,17.50
2022-07-26T04:40:21.325Z,17.40
2022-07-26T04:43:24.140Z,17.40
2022-07-26T04:46:25.903Z,17.30
2022-07-26T04:49:27.652Z,17.30
2022-07-26T04:52:29.334Z,17.30
2022-07-26T04:55:31.191Z,17.40
2022-07-26T04:58:32.884Z,17.40
2022-07-26T05:01:34.628Z,17.50
2022-07-26T05:04:36.386Z,17.40
2022-07-26T05:07:46.178Z,17.50
2022-07-26T05:10:54.644Z,17.50
2022-07-26T05:13:57.109Z,17.50
2022-07-26T05:16:58.867Z,17.50
2022-07-26T05:20:13.590Z,17.50
2022-07-26T05:23:16.721Z,17.50
2022-07-26T05:26:18.416Z,17.50
2022-07-26T05:29:20.114Z,17.60
2022-07-26T05:32:22.964Z,17.60
2022-07-26T05:35:24.674Z,17.60
2022-07-26T05:38:27.386Z,17.70
2022-07-26T05:41:29.236Z,17.80
2022-07-26T05:44:30.956Z,17.90
2022-07-26T05:47:32.854Z,17.80
2022-07-26T05:50:34.647Z,17.90
2022-07-26T05:53:36.726Z,19.60
2022-07-26T05:56:38.651Z,17.90
2022-07-26T05:59:40.797Z,17.90
2022-07-26T06:02:42.565Z,17.80
2022-07-26T06:05:44.325Z,17.80
2022-07-26T06:08:46.009Z,17.80
2022-07-26T06:11:47.782Z,17.90
2022-07-26T06:14:49.488Z,17.90
2022-07-26T06:17:51.167Z,18.10
2022-07-26T06:20:52.897Z,18.20
2022-07-26T06:23:54.617Z,18.40
2022-07-26T06:27:04.667Z,18.30
2022-07-26T06:30:08.388Z,18.50
2022-07-26T06:33:11.056Z,18.60
2022-07-26T06:36:12.898Z,18.70
2022-07-26T06:39:14.589Z,18.60
2022-07-26T06:42:16.277Z,18.60
2022-07-26T06:45:18.374Z,18.70
2022-07-26T06:48:20.112Z,18.80
2022-07-26T06:51:22.434Z,18.90
2022-07-26T06:54:24.397Z,19.00
2022-07-26T06:57:26.602Z,19.00
2022-07-26T07:00:28.406Z,19.00
2022-07-26T07:03:30.146Z,18.80
2022-07-26T07:06:31.864Z,19.00
2022-07-26T07:09:33.950Z,19.10
2022-07-26T07:12:35.870Z,19.00
2022-07-26T07:15:37.597Z,19.10
2022-07-26T07:18:39.310Z,19.20
2022-07-26T07:21:41.021Z,19.40
2022-07-26T07:24:42.915Z,19.40
2022-07-26T07:27:44.649Z,19.50
2022-07-26T07:30:47.539Z,19.60
2022-07-26T07:33:53.481Z,19.50
2022-07-26T07:36:55.601Z,19.60
2022-07-26T07:39:59.201Z,19.70
2022-07-26T07:43:00.952Z,19.70
2022-07-26T07:46:02.716Z,19.80
2022-07-26T07:49:04.788Z,19.70
2022-07-26T07:52:06.877Z,19.70
2022-07-26T07:55:40.550Z,19.80
2022-07-26T07:58:30.793Z,20.00
2022-07-26T08:01:40.442Z,20.20
2022-07-26T08:04:42.786Z,20.50
2022-07-26T08:07:44.610Z,20.20
2022-07-26T08:10:49.159Z,20.00
2022-07-26T08:13:54.190Z,20.00
2022-07-26T08:16:56.940Z,20.50
2022-07-26T08:20:00.100Z,20.70
2022-07-26T08:23:02.463Z,20.80
2022-07-26T08:26:06.811Z,20.90
2022-07-26T08:29:08.864Z,20.40
2022-07-26T08:32:10.573Z,20.50
2022-07-26T08:35:19.793Z,20.90
2022-07-26T08:38:21.888Z,20.80
2022-07-26T08:41:23.714Z,20.50
2022-07-26T08:44:26.092Z,20.50
2022-07-26T08:47:37.710Z,20.50
2022-07-26T08:50:42.148Z,20.60
2022-07-26T08:53:43.994Z,20.60
2022-07-26T08:56:52.954Z,20.60
2022-07-26T09:00:14.858Z,20.60
2022-07-26T09:03:26.368Z,20.80
2022-07-26T09:06:28.400Z,20.60
2022-07-26T09:09:31.106Z,20.20
2022-07-26T09:12:33.247Z,19.70
2022-07-26T09:15:35.199Z,19.20
2022-07-26T09:18:36.944Z,19.20
2022-07-26T09:21:38.876Z,19.00
2022-07-26T09:24:47.854Z,18.50
2022-07-26T09:27:50.208Z,18.50
2022-07-26T09:31:03.599Z,18.40
2022-07-26T09:34:06.983Z,18.40
2022-07-26T09:38:02.185Z,18.50
2022-07-26T09:41:16.105Z,18.50
2022-07-26T09:44:24.464Z,18.40
2022-07-26T09:47:39.876Z,18.50
2022-07-26T09:50:48.624Z,18.50
2022-07-26T09:53:50.474Z,18.60
2022-07-26T09:56:52.736Z,18.60
2022-07-26T09:59:54.933Z,18.60
2022-07-26T10:02:56.798Z,18.80
2022-07-26T10:05:59.942Z,18.70
2022-07-26T10:09:02.666Z,18.60
2022-07-26T10:12:07.266Z,18.60
2022-07-26T10:15:46.786Z,18.60
2022-07-26T10:18:50.186Z,18.50
2022-07-26T10:22:25.637Z,18.50
2022-07-26T10:25:30.287Z,18.70
2022-07-26T10:28:34.211Z,18.90
2022-07-26T10:31:36.002Z,19.10
2022-07-26T10:34:39.344Z,19.20
2022-07-26T10:38:01.989Z,19.10
2022-07-26T10:41:07.509Z,19.40
2022-07-26T10:44:17.310Z,19.30
2022-07-26T10:47:19.029Z,18.90
2022-07-26T10:50:32.862Z,18.30
2022-07-26T10:53:34.613Z,18.10
2022-07-26T10:56:36.582Z,18.10
2022-07-26T10:59:55.515Z,18.00
2022-07-26T11:02:59.718Z,17.90
2022-07-26T11:06:13.246Z,18.00
2022-07-26T11:09:15.995Z,18.00
2022-07-26T11:12:19.593Z,18.10
2022-07-26T11:15:21.537Z,18.10
2022-07-26T11:18:37.754Z,18.00
2022-07-26T11:21:41.149Z,17.90
2022-07-26T11:24:44.061Z,18.00
2022-07-26T11:28:07.366Z,17.90
2022-07-26T11:31:10.232Z,17.80
2022-07-26T11:34:18.402Z,17.90
2022-07-26T11:37:20.135Z,17.90
2022-07-26T11:40:47.581Z,17.90
2022-07-26T11:43:50.783Z,17.90
2022-07-26T11:46:52.748Z,18.00
2022-07-26T11:53:23.254Z,18.10
2022-07-26T11:56:26.016Z,18.00
2022-07-26T11:59:29.939Z,18.30
2022-07-26T12:02:31.714Z,18.30
2022-07-26T12:05:33.533Z,18.50
2022-07-26T12:08:57.112Z,18.60
2022-07-26T12:11:59.464Z,18.60
2022-07-26T12:15:03.720Z,18.50
2022-07-26T12:18:07.221Z,18.50
2022-07-26T12:21:09.664Z,18.60
2022-07-26T12:24:13.845Z,18.50
2022-07-26T12:27:27.272Z,18.50
2022-07-26T12:30:35.568Z,18.60
2022-07-26T12:33:48.822Z,18.70
2022-07-26T12:36:50.613Z,18.90
2022-07-26T12:40:18.741Z,18.90
2022-07-26T12:43:20.461Z,19.00
2022-07-26T12:46:22.205Z,19.00
2022-07-26T12:49:24.010Z,19.20
2022-07-26T12:52:25.854Z,19.20
2022-07-26T12:55:27.686Z,19.40
2022-07-26T12:58:29.377Z,19.40
2022-07-26T13:01:32.896Z,19.50
2022-07-26T13:04:35.081Z,19.50
2022-07-26T13:07:37.682Z,19.60
2022-07-26T13:10:41.701Z,19.10
2022-07-26T13:13:43.453Z,19.40
2022-07-26T13:16:45.354Z,19.40
2022-07-26T13:19:47.179Z,19.40
2022-07-26T13:22:48.893Z,19.40
2022-07-26T13:25:52.245Z,19.40
2022-07-26T13:28:54.806Z,19.40
2022-07-26T13:31:57.991Z,19.40
2022-07-26T13:34:59.773Z,19.30
2022-07-26T13:38:01.691Z,19.20
2022-07-26T13:41:04.315Z,19.20
2022-07-26T13:44:06.368Z,19.20
2022-07-26T13:47:08.093Z,19.40
2022-07-26T13:50:10.234Z,19.50
2022-07-26T13:53:11.943Z,19.60
2022-07-26T13:56:13.656Z,19.60
2022-07-26T13:59:15.878Z,19.40
2022-07-26T14:02:17.776Z,19.60
2022-07-26T14:05:19.607Z,19.60
2022-07-26T14:08:21.398Z,19.70
2022-07-26T14:11:23.200Z,19.80
2022-07-26T14:14:24.940Z,20.00
2022-07-26T14:17:26.692Z,20.00
2022-07-26T14:20:28.558Z,19.90
2022-07-26T14:23:30.398Z,19.80
2022-07-26T14:26:32.215Z,19.90
2022-07-26T14:29:33.979Z,19.80
2022-07-26T14:32:35.767Z,19.80
2022-07-26T14:35:37.505Z,19.80
2022-07-26T14:38:43.104Z,19.80
2022-07-26T14:41:44.866Z,19.70
2022-07-26T14:44:46.563Z,19.80
2022-07-26T14:47:48.319Z,19.80
2022-07-26T14:51:08.618Z,19.60
2022-07-26T14:54:14.181Z,19.60
2022-07-26T14:57:16.238Z,19.60
2022-07-26T15:00:18.629Z,19.60
2022-07-26T15:03:20.381Z,19.40
2022-07-26T15:06:22.498Z,19.00
2022-07-26T15:09:24.308Z,20.20
2022-07-26T15:12:26.077Z,18.60
2022-07-26T15:15:28.790Z,18.70
2022-07-26T15:18:30.502Z,18.60
2022-07-26T15:21:32.323Z,18.70
2022-07-26T15:24:37.792Z,18.60
2022-07-26T15:27:41.706Z,18.70
2022-07-26T15:30:43.593Z,18.90
2022-07-26T15:33:45.393Z,19.00
2022-07-26T15:36:47.125Z,19.00
2022-07-26T15:39:48.899Z,19.10
2022-07-26T15:42:54.045Z,19.20
2022-07-26T15:45:57.756Z,19.30
2022-07-26T15:49:01.762Z,19.20
2022-07-26T15:52:04.730Z,19.20
2022-07-26T15:55:08.748Z,19.20
2022-07-26T15:58:10.477Z,19.20
2022-07-26T16:01:13.908Z,19.10
2022-07-26T16:04:15.708Z,19.10
2022-07-26T16:07:17.453Z,19.30
2022-07-26T16:10:19.298Z,19.30
2022-07-26T16:13:21.030Z,19.20
2022-07-26T16:16:23.064Z,19.20
2022-07-26T16:19:24.805Z,19.30
2022-07-26T16:22:26.584Z,19.20
2022-07-26T16:25:28.313Z,19.20
2022-07-26T16:28:30.145Z,19.20
2022-07-26T16:31:32.051Z,19.10
2022-07-26T16:34:34.736Z,19.20
2022-07-26T16:37:36.674Z,19.20
2022-07-26T16:40:38.416Z,19.10
2022-07-26T16:43:40.332Z,19.10
2022-07-26T16:46:42.123Z,19.20
2022-07-26T16:49:46.198Z,19.20
2022-07-26T16:52:47.926Z,19.20
2022-07-26T16:55:51.766Z,19.10
2022-07-26T16:58:53.521Z,19.10
2022-07-26T17:01:55.624Z,19.20
2022-07-26T17:05:01.510Z,19.20
2022-07-26T17:08:04.508Z,19.30
2022-07-26T17:11:06.381Z,19.20
2022-07-26T17:14:08.186Z,19.30
2022-07-26T17:17:09.985Z,19.30
2022-07-26T17:20:11.853Z,19.10
2022-07-26T17:23:14.798Z,19.20
2022-07-26T17:26:17.918Z,19.30
2022-07-26T17:29:19.618Z,19.40
2022-07-26T17:32:21.498Z,19.40
2022-07-26T17:35:23.278Z,19.30
2022-07-26T17:38:25.021Z,19.60
2022-07-26T17:41:33.099Z,19.50
2022-07-26T17:44:35.362Z,19.40
2022-07-26T17:47:37.093Z,19.20
2022-07-26T17:50:39.084Z,19.20
2022-07-26T17:53:42.637Z,19.20
2022-07-26T17:56:44.384Z,19.20
2022-07-26T17:59:46.155Z,19.20
2022-07-26T18:02:48.455Z,19.10
2022-07-26T18:05:51.414Z,19.10
2022-07-26T18:08:53.225Z,19.20
2022-07-26T18:11:54.933Z,19.20
2022-07-26T18:14:56.957Z,19.20
2022-07-26T18:17:58.725Z,19.00
2022-07-26T18:21:00.464Z,19.00
2022-07-26T18:24:16.352Z,18.90
2022-07-26T18:27:19.550Z,18.90
2022-07-26T18:30:21.348Z,18.80
2022-07-26T18:33:23.109Z,18.70
2022-07-26T18:36:24.956Z,18.70
2022-07-26T18:39:30.506Z,18.70
2022-07-26T18:42:36.164Z,18.70
2022-07-26T18:45:37.889Z,18.60
2022-07-26T18:48:41.803Z,18.60
2022-07-26T18:51:44.806Z,18.50
2022-07-26T18:54:50.405Z,18.50
2022-07-26T18:57:53.763Z,18.50
2022-07-26T19:00:55.671Z,18.50
2022-07-26T19:03:57.526Z,18.50
2022-07-26T19:06:59.314Z,18.50
2022-07-26T19:10:01.013Z,18.40
2022-07-26T19:13:02.872Z,18.40
2022-07-26T19:16:04.928Z,18.40
2022-07-26T19:19:06.795Z,18.30
2022-07-26T19:22:08.812Z,18.40
2022-07-26T19:25:17.193Z,18.40
2022-07-26T19:28:19.093Z,18.30
2022-07-26T19:31:21.449Z,18.30
2022-07-26T19:34:23.901Z,18.30
2022-07-26T19:37:25.667Z,18.20
2022-07-26T19:40:27.699Z,18.20
2022-07-26T19:43:29.421Z,18.20
2022-07-26T19:46:31.123Z,18.10
2022-07-26T19:49:32.863Z,18.20
2022-07-26T19:52:35.157Z,18.10
2022-07-26T19:55:38.306Z,18.10
2022-07-26T19:58:40.375Z,18.00
2022-07-26T20:01:42.744Z,17.90
2022-07-26T20:04:46.258Z,17.90
2022-07-26T20:07:49.840Z,17.90
2022-07-26T20:10:52.284Z,17.80
2022-07-26T20:13:55.322Z,17.80
2022-07-26T20:16:58.015Z,17.70
2022-07-26T20:19:59.754Z,17.70
2022-07-26T20:23:03.533Z,17.60
2022-07-26T20:26:05.266Z,17.60
2022-07-26T20:29:07.585Z,17.60
2022-07-26T20:32:09.415Z,17.50
2022-07-26T20:35:12.161Z,17.40
2022-07-26T20:38:13.878Z,17.30
2022-07-26T20:41:15.581Z,17.40
2022-07-26T20:44:23.984Z,17.40
2022-07-26T20:47:29.808Z,17.40
2022-07-26T20:50:31.540Z,17.30
2022-07-26T20:53:33.207Z,17.20
2022-07-26T20:56:34.892Z,17.30
2022-07-26T20:59:38.073Z,17.20
2022-07-26T21:02:39.917Z,17.20
2022-07-26T21:05:41.624Z,17.20
2022-07-26T21:08:43.349Z,17.10
2022-07-26T21:11:45.024Z,17.10
2022-07-26T21:14:46.942Z,17.00
2022-07-26T21:17:48.832Z,17.10
2022-07-26T21:20:50.541Z,17.00
2022-07-26T21:23:52.263Z,16.90
2022-07-26T21:26:55.141Z,16.90
2022-07-26T21:29:56.818Z,16.80
2022-07-26T21:32:58.498Z,16.90
2022-07-26T21:36:00.258Z,16.80
2022-07-26T21:39:01.945Z,16.80
2022-07-26T21:42:04.392Z,16.80
2022-07-26T21:45:06.704Z,16.70
2022-07-26T21:48:08.457Z,16.60
2022-07-26T21:51:10.202Z,16.70
2022-07-26T21:54:11.885Z,16.60
2022-07-26T21:57:13.578Z,16.50
2022-07-26T22:00:16.353Z,16.50
2022-07-26T22:03:18.061Z,16.50
2022-07-26T22:06:19.821Z,16.50
2022-07-26T22:09:21.531Z,16.50
2022-07-26T22:12:23.199Z,16.50
2022-07-26T22:15:24.987Z,16.50
2022-07-26T22:18:29.852Z,16.50
2022-07-26T22:21:31.645Z,16.40
2022-07-26T22:24:33.354Z,16.40
2022-07-26T22:27:35.073Z,16.50
2022-07-26T22:30:37.159Z,16.30
2022-07-26T22:33:38.898Z,16.30
2022-07-26T22:36:45.256Z,16.20
2022-07-26T22:39:47.246Z,16.30
2022-07-26T22:42:49.726Z,16.20
2022-07-26T22:45:51.527Z,16.20
2022-07-26T22:48:53.389Z,16.20
2022-07-26T22:51:55.074Z,16.10
2022-07-26T22:54:56.928Z,16.00
2022-07-26T22:57:59.101Z,16.00
2022-07-26T23:01:00.914Z,16.00
2022-07-26T23:04:03.090Z,15.90
2022-07-26T23:07:07.924Z,15.80
2022-07-26T23:10:11.337Z,15.80
2022-07-26T23:13:16.227Z,15.70
2022-07-26T23:16:17.928Z,15.70
2022-07-26T23:19:23.457Z,15.60
2022-07-26T23:22:25.340Z,15.70
2022-07-26T23:25:27.040Z,15.60
2022-07-26T23:28:37.329Z,15.50
2022-07-26T23:31:40.025Z,15.50
2022-07-26T23:34:41.757Z,15.50
2022-07-26T23:37:43.530Z,15.50
2022-07-26T23:40:45.278Z,15.50
2022-07-26T23:43:47.109Z,15.40
2022-07-26T23:46:48.971Z,15.30
2022-07-26T23:49:50.746Z,15.30
2022-07-26T23:52:52.410Z,15.30
2022-07-26T23:55:54.409Z,15.30
2022-07-26T23:58:56.125Z,15.30
